Time;durP1;ratioP1;P1;durP2;ratioP2;P2;SDS_P1;SDS_P2;PMS_P1;PMS_P2;Temp;Humidity;BMP_temperature;BMP_pressure;BME280_temperature;BME280_humidity;BME280_pressure;Samples;Min_cycle;Max_cycle;Signal;HPM_P1;HPM_P2
2022/07/20 00:00:52;;;;;;;7.88;6.22;;;23.00;69.10;;;;;;2073954;28;20038;-75
2022/07/20 00:01:53;;;;;;;7.38;6.57;;;23.00;69.00;;;;;;2073762;28;20029;-75
2022/07/20 00:02:54;;;;;;;6.78;5.70;;;23.00;69.00;;;;;;2082550;28;20030;-75
2022/07/20 00:03:54;;;;;;;8.55;6.50;;;23.00;69.00;;;;;;2081578;28;20688;-74
2022/07/20 00:04:55;;;;;;;7.03;5.75;;;22.90;69.00;;;;;;2073503;28;20036;-74
2022/07/20 00:05:56;;;;;;;6.68;5.75;;;22.90;69.00;;;;;;2073536;28;20030;-75
2022/07/20 00:06:56;;;;;;;6.40;5.80;;;22.90;69.00;;;;;;2073438;28;20046;-74
2022/07/20 00:07:57;;;;;;;6.38;5.70;;;22.90;68.90;;;;;;2073483;28;20030;-74
2022/07/20 00:11:37;;;;;;;6.10;5.50;;;22.80;69.20;;;;;;2073719;28;20859;-75
2022/07/20 00:12:38;;;;;;;7.60;5.63;;;22.80;69.30;;;;;;2073532;28;20037;-75
2022/07/20 00:13:38;;;;;;;7.35;5.60;;;22.80;69.50;;;;;;2082148;28;20022;-75
2022/07/20 00:14:39;;;;;;;10.65;6.10;;;22.80;69.60;;;;;;2081935;28;20021;-75
2022/07/20 00:15:41;;;;;;;8.38;5.60;;;22.70;69.60;;;;;;2073745;28;20025;-75
2022/07/20 00:16:41;;;;;;;7.97;5.82;;;22.70;69.80;;;;;;2073455;28;20101;-74
2022/07/20 00:17:42;;;;;;;8.90;6.00;;;22.70;69.80;;;;;;2082232;28;20393;-75
2022/07/20 00:18:43;;;;;;;6.63;5.72;;;22.70;70.10;;;;;;2082394;28;20022;-75
2022/07/20 00:19:43;;;;;;;9.02;6.10;;;22.70;70.20;;;;;;2082687;28;20128;-74
2022/07/20 00:20:44;;;;;;;9.07;5.85;;;22.60;70.30;;;;;;2082322;28;20025;-75
2022/07/20 00:21:45;;;;;;;8.73;5.78;;;22.60;70.40;;;;;;2073592;28;20029;-74
2022/07/20 00:22:46;;;;;;;6.40;5.80;;;22.60;70.50;;;;;;2073676;28;20105;-74
2022/07/20 00:23:47;;;;;;;6.25;5.60;;;22.60;70.60;;;;;;2082256;28;20021;-75
2022/07/20 00:24:48;;;;;;;7.40;5.68;;;22.60;70.80;;;;;;2073669;28;20030;-75
2022/07/20 00:25:48;;;;;;;7.43;5.80;;;22.50;70.80;;;;;;2074248;28;20030;-75
2022/07/20 00:26:49;;;;;;;8.60;5.88;;;22.50;70.90;;;;;;2082135;28;20029;-75
2022/07/20 00:27:49;;;;;;;8.18;5.88;;;22.50;71.00;;;;;;2081726;28;20108;-75
2022/07/20 00:28:50;;;;;;;7.20;6.35;;;22.50;71.10;;;;;;2073277;28;20396;-75
2022/07/20 00:29:51;;;;;;;6.88;5.80;;;22.50;71.20;;;;;;2073934;28;20069;-75
2022/07/20 00:30:51;;;;;;;8.02;6.15;;;22.50;71.30;;;;;;2073415;28;20038;-75
2022/07/20 00:31:52;;;;;;;7.55;5.90;;;22.40;71.20;;;;;;2065672;28;20062;-75
2022/07/20 00:32:53;;;;;;;6.57;5.90;;;22.40;71.20;;;;;;2073984;28;20105;-75
2022/07/20 00:33:53;;;;;;;6.90;5.95;;;22.40;71.30;;;;;;2065769;28;20065;-75
2022/07/20 00:34:54;;;;;;;7.65;5.80;;;22.40;71.30;;;;;;2065118;28;20030;-75
2022/07/20 00:35:55;;;;;;;7.65;6.10;;;22.40;71.50;;;;;;2073542;28;20129;-75
2022/07/20 00:36:55;;;;;;;6.93;6.18;;;22.40;71.60;;;;;;2082237;28;20068;-75
2022/07/20 00:37:56;;;;;;;7.13;5.57;;;22.40;71.80;;;;;;2073581;28;20117;-75
2022/07/20 00:38:57;;;;;;;7.50;5.93;;;22.30;71.80;;;;;;2073352;28;20030;-75
2022/07/20 00:39:57;;;;;;;8.98;6.20;;;22.30;71.90;;;;;;2082063;28;20030;-75
2022/07/20 00:40:58;;;;;;;9.18;6.28;;;22.30;72.30;;;;;;2073809;28;20022;-75
2022/07/20 00:41:59;;;;;;;6.95;5.82;;;22.30;72.20;;;;;;2073439;28;20599;-75
2022/07/20 00:42:59;;;;;;;10.10;5.72;;;22.30;72.20;;;;;;2082678;28;20037;-75
2022/07/20 00:44:06;;;;;;;7.60;5.90;;;22.30;72.10;;;;;;2082269;28;20049;-75
2022/07/20 00:45:09;;;;;;;6.32;5.53;;;22.30;72.10;;;;;;2082275;28;20029;-75
2022/07/20 00:46:09;;;;;;;6.72;5.45;;;22.20;72.20;;;;;;2081749;28;20068;-75
2022/07/20 00:47:10;;;;;;;6.72;6.03;;;22.20;72.50;;;;;;2081607;28;20037;-74
2022/07/20 00:48:10;;;;;;;8.15;6.25;;;22.20;72.60;;;;;;2082252;28;20026;-74
2022/07/20 00:49:13;;;;;;;9.27;5.72;;;22.10;72.80;;;;;;2073807;28;20026;-74
2022/07/20 00:50:14;;;;;;;7.50;6.00;;;22.10;72.90;;;;;;2065852;28;20038;-76
2022/07/20 00:51:15;;;;;;;7.65;6.05;;;22.10;73.10;;;;;;2073750;28;20038;-75
2022/07/20 00:52:16;;;;;;;7.30;5.90;;;22.10;73.20;;;;;;2073753;28;20081;-75
2022/07/20 00:53:17;;;;;;;7.05;6.03;;;22.10;73.30;;;;;;2082461;28;20025;-75
2022/07/20 00:54:19;;;;;;;9.27;6.15;;;22.10;73.40;;;;;;2073242;28;20890;-75
2022/07/20 00:55:21;;;;;;;7.88;5.70;;;22.10;73.60;;;;;;2073463;28;20385;-75
2022/07/20 00:56:22;;;;;;;7.78;5.93;;;22.00;73.50;;;;;;2081487;28;20072;-75
2022/07/20 00:57:23;;;;;;;8.60;5.70;;;22.00;73.50;;;;;;2073525;28;20137;-75
2022/07/20 00:58:24;;;;;;;9.55;6.18;;;22.00;73.60;;;;;;2065159;28;20038;-76
2022/07/20 00:59:25;;;;;;;7.28;5.85;;;22.00;73.60;;;;;;2065442;28;20117;-75
2022/07/20 01:00:25;;;;;;;6.32;5.72;;;22.00;73.70;;;;;;2073766;28;20057;-75
2022/07/20 01:01:26;;;;;;;6.88;6.18;;;21.90;73.80;;;;;;2065416;28;20015;-75
2022/07/20 01:02:27;;;;;;;7.68;5.95;;;22.00;73.90;;;;;;2073438;28;20053;-74
2022/07/20 01:03:28;;;;;;;7.45;5.95;;;21.90;74.00;;;;;;2073318;28;20492;-74
2022/07/20 01:04:28;;;;;;;7.80;6.35;;;21.90;74.10;;;;;;2065119;28;20034;-75
2022/07/20 01:05:29;;;;;;;9.30;6.53;;;21.90;74.20;;;;;;2073920;28;20132;-75
2022/07/20 01:06:30;;;;;;;7.47;6.00;;;21.80;74.40;;;;;;2082220;28;20044;-76
2022/07/20 01:07:31;;;;;;;8.63;5.93;;;21.80;74.40;;;;;;2081657;28;20036;-75
2022/07/20 01:08:32;;;;;;;8.20;5.88;;;21.80;74.50;;;;;;2082800;28;20029;-76
2022/07/20 01:09:32;;;;;;;7.72;5.90;;;21.80;74.70;;;;;;2082801;28;20057;-75
2022/07/20 01:10:33;;;;;;;6.78;5.75;;;21.80;74.80;;;;;;2082869;28;20036;-75
2022/07/20 01:11:35;;;;;;;7.40;5.82;;;21.80;74.90;;;;;;2073797;28;20081;-75
2022/07/20 01:12:37;;;;;;;6.68;5.80;;;21.80;74.90;;;;;;2073889;28;20037;-76
2022/07/20 01:13:38;;;;;;;6.80;5.85;;;21.80;74.80;;;;;;2082501;28;20028;-74
2022/07/20 01:14:39;;;;;;;8.07;6.10;;;21.70;74.90;;;;;;2073532;28;20049;-74
2022/07/20 01:15:56;;;;;;;7.70;5.97;;;21.70;75.10;;;;;;2066086;28;20462;-75
2022/07/20 01:16:57;;;;;;;7.75;6.15;;;21.70;75.20;;;;;;2079949;28;20109;-75
2022/07/20 01:18:04;;;;;;;8.68;5.90;;;21.60;75.20;;;;;;2085375;28;20056;-74
2022/07/20 01:19:09;;;;;;;7.75;6.20;;;21.60;75.30;;;;;;2077370;28;20033;-74
2022/07/20 01:20:16;;;;;;;8.15;6.13;;;21.60;75.60;;;;;;2069658;28;20054;-75
2022/07/20 01:21:20;;;;;;;8.52;6.13;;;21.60;75.70;;;;;;2069620;28;20037;-74
2022/07/20 01:22:25;;;;;;;8.10;6.25;;;21.60;75.80;;;;;;2068732;28;20031;-75
2022/07/20 01:23:31;;;;;;;7.85;5.53;;;21.60;75.80;;;;;;2069344;28;20037;-73
2022/07/20 01:24:42;;;;;;;7.45;5.88;;;21.60;75.90;;;;;;2069042;28;20026;-75
2022/07/20 01:25:44;;;;;;;6.78;5.93;;;21.60;76.60;;;;;;2078424;28;20029;-75
2022/07/20 01:26:46;;;;;;;9.00;5.95;;;21.60;75.90;;;;;;2085633;28;20022;-75
2022/07/20 01:27:47;;;;;;;6.35;5.65;;;21.60;76.10;;;;;;2085000;28;20029;-75
2022/07/20 01:29:02;;;;;;;8.90;6.18;;;21.50;76.20;;;;;;2076446;28;20030;-75
2022/07/20 01:30:04;;;;;;;7.60;5.70;;;21.50;76.30;;;;;;2075742;28;20570;-75
2022/07/20 01:31:08;;;;;;;7.25;6.00;;;21.50;76.40;;;;;;2068933;28;20038;-75
2022/07/20 01:32:18;;;;;;;8.95;6.00;;;21.50;76.50;;;;;;2068779;28;20034;-75
2022/07/20 01:33:19;;;;;;;7.68;6.05;;;21.40;76.60;;;;;;2077681;28;20040;-76
2022/07/20 01:34:20;;;;;;;7.60;5.93;;;21.40;77.00;;;;;;2076438;28;20053;-76
2022/07/20 01:35:26;;;;;;;7.25;6.20;;;21.40;77.00;;;;;;2076884;28;20106;-75
2022/07/20 01:36:27;;;;;;;7.75;5.85;;;21.40;77.00;;;;;;2076519;28;20026;-75
2022/07/20 01:37:31;;;;;;;7.43;5.85;;;21.40;77.10;;;;;;2076696;28;20057;-75
2022/07/20 01:38:39;;;;;;;7.28;5.80;;;21.40;77.20;;;;;;2068876;28;20065;-75
2022/07/20 01:39:42;;;;;;;7.32;6.10;;;21.40;77.30;;;;;;2062010;28;20046;-76
2022/07/20 01:40:49;;;;;;;8.68;6.20;;;21.30;77.40;;;;;;2067484;28;20085;-75
2022/07/20 01:42:13;;;;;;;8.85;6.00;;;21.30;77.40;;;;;;2078810;28;20028;-76
2022/07/20 01:43:20;;;;;;;7.32;6.00;;;21.30;77.60;;;;;;2067249;28;20041;-75
2022/07/20 01:44:30;;;;;;;7.15;6.22;;;21.30;77.60;;;;;;2077957;28;20052;-75
2022/07/20 01:45:32;;;;;;;8.45;5.93;;;21.30;77.70;;;;;;2090823;28;20710;-75
2022/07/20 01:46:35;;;;;;;7.50;6.05;;;21.30;77.80;;;;;;2075514;28;20034;-75
2022/07/20 01:47:45;;;;;;;7.65;6.00;;;21.20;77.80;;;;;;2083602;28;20025;-75
2022/07/20 01:48:46;;;;;;;8.55;6.07;;;21.20;77.90;;;;;;2075967;28;20057;-75
2022/07/20 01:49:47;;;;;;;7.72;5.63;;;21.20;78.00;;;;;;2076650;28;20030;-75
2022/07/20 01:50:51;;;;;;;6.97;6.00;;;21.20;78.10;;;;;;2076919;28;20060;-75
2022/07/20 01:51:55;;;;;;;6.85;5.90;;;21.20;78.30;;;;;;2076821;28;20033;-76
2022/07/20 01:52:59;;;;;;;6.75;5.45;;;21.20;78.20;;;;;;2076576;28;20487;-75
2022/07/20 01:56:03;;;;;;;7.38;5.95;;;21.20;78.20;;;;;;2074610;28;20128;-75
2022/07/20 01:57:10;;;;;;;7.43;6.00;;;21.20;78.50;;;;;;2074389;28;20037;-75
2022/07/20 01:58:17;;;;;;;7.05;6.03;;;21.10;78.60;;;;;;2082569;28;20123;-75
2022/07/20 01:59:21;;;;;;;8.60;5.70;;;21.10;78.80;;;;;;2083070;28;20025;-75
2022/07/20 02:00:23;;;;;;;6.45;5.80;;;21.10;78.90;;;;;;2084268;28;20026;-75
2022/07/20 02:01:24;;;;;;;8.13;5.88;;;21.10;78.90;;;;;;2088124;28;20028;-75
2022/07/20 02:02:24;;;;;;;6.10;5.50;;;21.10;79.00;;;;;;2081342;28;20037;-75
2022/07/20 02:03:45;;;;;;;;;;;;;;;;;;;;;
2022/07/20 02:04:50;;;;;;;6.57;5.70;;;21.00;79.30;;;;;;2074584;28;20058;-74
2022/07/20 02:05:57;;;;;;;7.10;5.70;;;21.00;79.30;;;;;;2073682;28;20061;-75
2022/07/20 02:06:57;;;;;;;6.70;5.80;;;21.00;79.50;;;;;;2077966;28;20654;-74
2022/07/20 02:07:58;;;;;;;8.10;5.85;;;21.00;79.50;;;;;;2084063;28;20093;-75
2022/07/20 02:08:59;;;;;;;7.18;6.10;;;21.00;79.60;;;;;;2080606;28;20124;-75
2022/07/20 02:09:59;;;;;;;7.28;5.75;;;21.00;79.70;;;;;;2080818;28;20049;-75
2022/07/20 02:11:00;;;;;;;7.43;6.15;;;20.90;79.80;;;;;;2081335;28;20029;-75
2022/07/20 02:12:01;;;;;;;6.10;5.50;;;20.90;79.80;;;;;;2081633;28;20122;-75
2022/07/20 02:13:01;;;;;;;6.50;5.78;;;20.90;79.90;;;;;;2081364;28;20048;-75
2022/07/20 02:14:02;;;;;;;6.75;5.60;;;20.90;80.10;;;;;;2080793;28;20681;-76
2022/07/20 02:15:09;;;;;;;8.02;5.68;;;20.90;80.10;;;;;;2072149;28;20081;-76
2022/07/20 02:16:15;;;;;;;8.55;5.70;;;20.90;80.20;;;;;;2073046;28;20022;-76
2022/07/20 02:17:16;;;;;;;7.72;5.70;;;20.90;80.30;;;;;;2081174;28;20120;-76
2022/07/20 02:18:17;;;;;;;7.40;5.80;;;20.90;80.40;;;;;;2072254;28;20060;-76
2022/07/20 02:19:17;;;;;;;7.25;5.97;;;20.80;80.50;;;;;;2072363;28;20476;-75
2022/07/20 02:20:18;;;;;;;6.50;5.80;;;20.80;80.70;;;;;;2081237;28;20029;-76
2022/07/20 02:21:21;;;;;;;6.32;5.72;;;20.80;80.80;;;;;;2081204;28;20053;-76
2022/07/20 02:22:21;;;;;;;9.02;5.75;;;20.80;80.90;;;;;;2081157;28;20038;-75
2022/07/20 02:23:22;;;;;;;6.65;5.50;;;20.80;81.00;;;;;;2080320;28;20100;-76
2022/07/20 02:24:23;;;;;;;7.82;5.63;;;20.70;81.00;;;;;;2072034;28;20038;-76
2022/07/20 02:25:23;;;;;;;9.15;5.95;;;20.70;81.10;;;;;;2072135;28;20064;-76
2022/07/20 02:26:24;;;;;;;6.85;6.07;;;20.70;81.20;;;;;;2080643;28;20459;-74
2022/07/20 02:27:25;;;;;;;7.35;6.40;;;20.70;81.40;;;;;;2080836;28;20494;-74
2022/07/20 02:28:26;;;;;;;8.65;6.25;;;20.70;81.40;;;;;;2080225;28;20014;-74
2022/07/20 02:29:26;;;;;;;6.57;5.97;;;20.70;81.40;;;;;;2080473;28;20491;-74
2022/07/20 02:30:28;;;;;;;10.20;6.07;;;20.70;81.70;;;;;;2080914;28;20664;-74
2022/07/20 02:31:29;;;;;;;6.50;5.85;;;20.70;81.70;;;;;;2079745;28;20022;-74
2022/07/20 02:32:29;;;;;;;6.85;5.80;;;20.70;81.80;;;;;;2072288;28;20026;-74
2022/07/20 02:33:30;;;;;;;6.88;5.90;;;20.60;81.80;;;;;;2071970;28;20068;-75
2022/07/20 02:34:31;;;;;;;6.72;5.88;;;20.60;82.00;;;;;;2080651;28;20044;-74
2022/07/20 02:35:31;;;;;;;7.30;6.10;;;20.70;82.80;;;;;;2072401;28;20074;-75
2022/07/20 02:36:32;;;;;;;6.30;5.65;;;20.60;82.00;;;;;;2072390;28;20436;-74
2022/07/20 02:37:33;;;;;;;6.03;5.43;;;20.60;82.00;;;;;;2081119;28;20510;-75
2022/07/20 02:38:34;;;;;;;6.80;6.03;;;20.60;82.00;;;;;;2081064;28;20056;-75
2022/07/20 02:39:35;;;;;;;7.38;5.72;;;20.60;82.20;;;;;;2088628;28;20130;-76
2022/07/20 02:40:35;;;;;;;6.68;6.00;;;20.60;82.30;;;;;;2088977;28;20116;-75
2022/07/20 02:41:36;;;;;;;10.02;6.22;;;20.60;82.40;;;;;;2080813;28;20026;-76
2022/07/20 02:42:37;;;;;;;6.53;5.90;;;20.60;82.40;;;;;;2081187;28;20077;-75
2022/07/20 02:43:38;;;;;;;7.28;5.97;;;20.60;82.50;;;;;;2081301;28;20044;-75
2022/07/20 02:44:38;;;;;;;6.28;5.68;;;20.60;82.60;;;;;;2071846;28;20037;-75
2022/07/20 02:45:39;;;;;;;8.07;5.97;;;20.60;82.70;;;;;;2072520;28;20028;-76
2022/07/20 02:46:40;;;;;;;11.52;10.32;;;20.60;82.80;;;;;;2081094;28;20614;-75
2022/07/20 02:47:46;;;;;;;9.85;8.10;;;20.50;82.90;;;;;;2072575;28;20049;-76
2022/07/20 02:48:47;;;;;;;8.25;7.43;;;20.50;83.00;;;;;;2080797;28;20503;-75
2022/07/20 02:49:47;;;;;;;8.07;6.57;;;20.50;83.30;;;;;;2080551;28;20037;-75
2022/07/20 02:50:48;;;;;;;10.82;6.88;;;20.50;83.40;;;;;;2072499;28;20033;-75
2022/07/20 02:51:49;;;;;;;7.00;6.30;;;20.50;83.50;;;;;;2081139;28;20163;-75
2022/07/20 02:52:50;;;;;;;7.40;6.60;;;20.40;83.40;;;;;;2081235;28;20029;-75
2022/07/20 02:53:50;;;;;;;9.13;6.20;;;20.40;83.40;;;;;;2081583;28;20033;-75
2022/07/20 02:54:51;;;;;;;6.65;5.82;;;20.40;83.40;;;;;;2072239;28;20041;-76
2022/07/20 02:55:52;;;;;;;6.78;6.07;;;20.50;83.40;;;;;;2072761;28;20069;-76
2022/07/20 02:56:52;;;;;;;9.02;6.30;;;20.50;83.50;;;;;;2081579;28;20566;-75
2022/07/20 02:57:53;;;;;;;7.18;6.10;;;20.40;83.60;;;;;;2072677;28;20050;-76
2022/07/20 02:58:54;;;;;;;7.25;6.15;;;20.40;83.70;;;;;;2072484;28;20076;-75
2022/07/20 02:59:55;;;;;;;7.15;6.32;;;20.40;83.90;;;;;;2080805;28;20641;-75
2022/07/20 03:00:57;;;;;;;6.97;6.13;;;20.40;84.00;;;;;;2081103;28;20328;-75
2022/07/20 03:01:58;;;;;;;9.93;6.28;;;20.40;84.00;;;;;;2081379;28;20515;-75
2022/07/20 03:02:59;;;;;;;7.03;6.32;;;20.40;84.20;;;;;;2081169;28;20029;-74
2022/07/20 03:03:59;;;;;;;10.50;6.60;;;20.40;84.20;;;;;;2072717;28;20042;-75
2022/07/20 03:05:00;;;;;;;9.93;6.68;;;20.30;84.20;;;;;;2072598;28;20034;-74
2022/07/20 03:06:01;;;;;;;7.60;6.50;;;20.30;84.40;;;;;;2081664;28;20046;-75
2022/07/20 03:07:01;;;;;;;7.30;6.50;;;20.30;84.40;;;;;;2072879;28;20030;-76
2022/07/20 03:08:03;;;;;;;7.72;6.43;;;20.30;84.50;;;;;;2065489;28;20030;-76
2022/07/20 03:09:04;;;;;;;8.35;6.10;;;20.30;84.60;;;;;;2073922;28;20049;-75
2022/07/20 03:10:06;;;;;;;9.43;6.53;;;20.30;84.60;;;;;;2082613;28;20064;-75
2022/07/20 03:11:06;;;;;;;6.85;6.15;;;20.30;84.80;;;;;;2082641;28;20087;-77
2022/07/20 03:12:08;;;;;;;6.97;6.05;;;20.30;84.90;;;;;;2082726;28;20449;-76
2022/07/20 03:13:09;;;;;;;7.00;6.30;;;20.30;84.90;;;;;;2073212;28;20026;-76
2022/07/20 03:14:09;;;;;;;7.68;6.03;;;20.30;85.00;;;;;;2073291;28;20061;-75
2022/07/20 03:15:11;;;;;;;8.23;6.28;;;20.30;85.00;;;;;;2074671;28;20041;-75
2022/07/20 03:16:12;;;;;;;6.93;6.22;;;20.30;85.10;;;;;;2065848;28;20033;-75
2022/07/20 03:17:12;;;;;;;11.60;6.53;;;20.30;85.20;;;;;;2073491;28;20092;-75
2022/07/20 03:18:13;;;;;;;8.25;6.40;;;20.30;85.30;;;;;;2082418;28;20036;-76
2022/07/20 03:19:14;;;;;;;7.20;6.40;;;20.30;85.50;;;;;;2081732;28;20057;-75
2022/07/20 03:20:20;;;;;;;6.60;6.00;;;20.30;85.50;;;;;;2073191;28;20132;-75
2022/07/20 03:21:21;;;;;;;6.95;6.25;;;20.30;85.50;;;;;;2065782;28;20030;-75
2022/07/20 03:22:22;;;;;;;7.72;6.25;;;20.30;85.60;;;;;;2073126;28;20033;-75
2022/07/20 03:23:22;;;;;;;7.68;6.50;;;20.20;85.60;;;;;;2072489;28;20044;-76
2022/07/20 03:24:23;;;;;;;8.07;6.68;;;20.30;86.40;;;;;;2072439;28;20022;-75
2022/07/20 03:25:24;;;;;;;7.93;6.28;;;20.30;85.60;;;;;;2071938;28;20499;-76
2022/07/20 03:26:25;;;;;;;11.05;6.93;;;20.30;85.50;;;;;;2064144;28;20066;-76
2022/07/20 03:27:26;;;;;;;9.48;6.60;;;20.30;85.50;;;;;;2072024;28;20507;-75
2022/07/20 03:28:26;;;;;;;7.20;6.18;;;20.30;85.60;;;;;;2072694;28;20037;-76
2022/07/20 03:29:27;;;;;;;7.88;6.35;;;20.30;85.50;;;;;;2072872;28;20021;-75
2022/07/20 03:30:28;;;;;;;7.30;6.40;;;20.30;85.50;;;;;;2081345;28;20112;-76
2022/07/20 03:31:29;;;;;;;7.60;6.50;;;20.30;85.50;;;;;;2083175;28;20017;-76
2022/07/20 03:32:30;;;;;;;8.55;6.60;;;20.30;85.50;;;;;;2082052;28;20025;-75
2022/07/20 03:33:30;;;;;;;7.75;6.38;;;20.30;85.50;;;;;;2081547;28;20021;-75
2022/07/20 03:34:31;;;;;;;8.80;6.78;;;20.30;85.60;;;;;;2082507;28;20503;-75
2022/07/20 03:35:32;;;;;;;9.18;6.90;;;20.30;85.70;;;;;;2073792;28;20064;-75
2022/07/20 03:36:32;;;;;;;7.65;6.60;;;20.30;86.60;;;;;;2074142;28;20022;-76
2022/07/20 03:37:33;;;;;;;7.32;6.53;;;20.30;85.80;;;;;;2082718;28;20041;-75
2022/07/20 03:38:34;;;;;;;8.48;6.15;;;20.30;85.90;;;;;;2082337;28;20030;-75
2022/07/20 03:39:34;;;;;;;8.93;6.57;;;20.30;85.90;;;;;;2082456;28;20128;-76
2022/07/20 03:40:35;;;;;;;7.28;6.35;;;20.30;85.80;;;;;;2082714;28;20025;-75
2022/07/20 03:41:35;;;;;;;7.35;6.20;;;20.40;85.80;;;;;;2073804;28;20046;-76
2022/07/20 03:42:36;;;;;;;7.78;6.40;;;20.40;85.70;;;;;;2065541;28;20375;-76
2022/07/20 03:43:37;;;;;;;7.40;6.13;;;20.40;85.70;;;;;;2073945;28;20029;-76
2022/07/20 03:44:37;;;;;;;6.88;6.20;;;20.40;85.70;;;;;;2081876;28;20031;-75
2022/07/20 03:45:38;;;;;;;8.02;6.40;;;20.40;85.60;;;;;;2082036;28;20030;-77
2022/07/20 03:46:39;;;;;;;7.88;6.65;;;20.40;85.50;;;;;;2074808;28;20404;-76
2022/07/20 03:47:40;;;;;;;7.60;6.22;;;20.40;85.60;;;;;;2074755;28;20052;-76
2022/07/20 03:48:40;;;;;;;7.88;6.30;;;20.40;85.60;;;;;;2084269;28;20032;-77
2022/07/20 03:49:41;;;;;;;7.38;6.45;;;20.40;85.60;;;;;;2086635;28;20021;-76
2022/07/20 03:50:42;;;;;;;10.18;6.45;;;20.50;85.50;;;;;;2071065;28;20097;-76
2022/07/20 03:51:42;;;;;;;8.48;6.60;;;20.50;85.50;;;;;;2070288;28;20030;-76
2022/07/20 03:52:43;;;;;;;8.07;6.68;;;20.50;85.40;;;;;;2084853;28;20071;-77
2022/07/20 03:53:44;;;;;;;8.85;6.30;;;20.50;85.30;;;;;;2083092;28;20052;-76
2022/07/20 03:54:44;;;;;;;10.25;6.45;;;20.50;85.40;;;;;;2082787;28;20119;-76
2022/07/20 03:55:45;;;;;;;8.60;6.60;;;20.60;85.40;;;;;;2082721;28;20107;-76
2022/07/20 03:56:46;;;;;;;9.43;6.72;;;20.60;85.30;;;;;;2083401;28;20592;-76
2022/07/20 03:57:46;;;;;;;7.88;6.07;;;20.60;85.10;;;;;;2082620;28;20399;-79
2022/07/20 03:58:47;;;;;;;7.40;6.57;;;20.60;85.10;;;;;;2074175;28;20458;-77
2022/07/20 03:59:48;;;;;;;10.07;6.82;;;20.60;85.00;;;;;;2074713;28;20039;-76
2022/07/20 04:00:48;;;;;;;7.85;7.00;;;20.70;85.10;;;;;;2073808;28;20040;-77
2022/07/20 04:01:49;;;;;;;11.32;7.07;;;20.70;84.90;;;;;;2074126;28;20026;-75
2022/07/20 04:02:50;;;;;;;7.00;6.28;;;20.70;84.90;;;;;;2082433;28;20601;-75
2022/07/20 04:03:51;;;;;;;8.65;6.68;;;20.80;84.80;;;;;;2082864;28;20049;-74
2022/07/20 04:04:51;;;;;;;6.97;6.30;;;20.80;84.70;;;;;;2082472;28;20026;-75
2022/07/20 04:05:52;;;;;;;7.57;6.20;;;20.80;84.50;;;;;;2083104;28;20021;-74
2022/07/20 04:06:53;;;;;;;8.02;6.25;;;20.80;84.40;;;;;;2074312;28;20455;-75
2022/07/20 04:07:53;;;;;;;8.18;6.72;;;20.80;84.40;;;;;;2066271;28;20500;-75
2022/07/20 04:08:54;;;;;;;7.05;6.25;;;20.80;84.20;;;;;;2073809;28;20057;-76
2022/07/20 04:09:55;;;;;;;7.72;6.75;;;20.80;84.70;;;;;;2074470;28;20040;-76
2022/07/20 04:10:56;;;;;;;9.32;6.50;;;20.90;84.10;;;;;;2074758;28;20026;-76
2022/07/20 04:11:56;;;;;;;8.80;6.38;;;20.90;84.10;;;;;;2074699;28;20546;-75
2022/07/20 04:12:57;;;;;;;7.07;6.38;;;20.90;83.80;;;;;;2082323;28;20030;-76
2022/07/20 04:13:58;;;;;;;7.10;6.22;;;21.00;83.80;;;;;;2090937;28;20076;-76
2022/07/20 04:14:58;;;;;;;8.20;6.47;;;21.00;83.60;;;;;;2083368;28;20071;-76
2022/07/20 04:15:59;;;;;;;6.78;6.18;;;21.00;83.60;;;;;;2082996;28;20029;-76
2022/07/20 04:17:00;;;;;;;6.88;6.18;;;21.10;83.60;;;;;;2074236;28;20044;-77
2022/07/20 04:18:00;;;;;;;8.70;6.15;;;21.20;83.20;;;;;;2074020;28;20340;-76
2022/07/20 04:19:01;;;;;;;8.13;6.55;;;21.30;82.80;;;;;;2082793;28;20215;-77
2022/07/20 04:20:04;;;;;;;7.45;6.15;;;21.60;82.20;;;;;;2083630;28;20040;-75
2022/07/20 04:21:05;;;;;;;8.18;6.50;;;21.80;81.30;;;;;;2084277;28;20099;-78
2022/07/20 04:22:07;;;;;;;6.43;5.82;;;22.00;80.40;;;;;;2083310;28;20025;-76
2022/07/20 04:23:08;;;;;;;8.20;6.03;;;22.30;79.50;;;;;;2082730;28;20030;-76
2022/07/20 04:24:09;;;;;;;7.00;5.93;;;22.50;78.40;;;;;;2081956;28;20030;-75
2022/07/20 04:25:10;;;;;;;7.18;5.85;;;22.70;77.50;;;;;;2073741;28;20538;-76
2022/07/20 04:26:10;;;;;;;7.03;5.97;;;23.00;76.50;;;;;;2074083;28;20038;-76
2022/07/20 04:27:11;;;;;;;6.15;5.55;;;23.20;75.60;;;;;;2082729;28;20027;-76
2022/07/20 04:28:12;;;;;;;7.72;6.20;;;23.40;74.70;;;;;;2081780;28;20034;-76
2022/07/20 04:29:14;;;;;;;7.60;5.80;;;23.60;73.90;;;;;;2073210;28;20033;-76
2022/07/20 04:30:15;;;;;;;8.55;6.28;;;23.70;73.30;;;;;;2057878;28;20102;-77
2022/07/20 04:31:16;;;;;;;9.25;5.93;;;23.90;72.60;;;;;;2057916;28;20062;-79
2022/07/20 04:32:16;;;;;;;9.85;6.25;;;24.00;71.90;;;;;;2065257;28;20503;-75
2022/07/20 04:33:20;;;;;;;6.63;6.00;;;24.10;71.50;;;;;;2065040;28;21369;-76
2022/07/20 04:34:21;;;;;;;6.85;5.95;;;24.30;71.10;;;;;;2065879;28;20026;-76
2022/07/20 04:35:22;;;;;;;8.75;5.70;;;24.40;70.50;;;;;;2082718;28;20049;-76
2022/07/20 04:36:23;;;;;;;8.27;6.20;;;24.50;70.00;;;;;;2073703;28;20030;-77
2022/07/20 04:37:24;;;;;;;7.15;6.03;;;24.60;69.40;;;;;;2073478;28;20053;-77
2022/07/20 04:38:24;;;;;;;9.77;6.00;;;24.70;68.80;;;;;;2082457;28;20021;-77
2022/07/20 04:39:26;;;;;;;8.40;6.05;;;24.80;68.50;;;;;;2082201;28;20446;-75
2022/07/20 04:40:27;;;;;;;9.15;6.40;;;24.90;68.10;;;;;;2074030;28;20049;-76
2022/07/20 04:41:27;;;;;;;8.45;6.50;;;25.00;67.80;;;;;;2073658;28;20038;-76
2022/07/20 04:42:28;;;;;;;9.18;5.90;;;25.00;67.40;;;;;;2072542;28;20057;-76
2022/07/20 04:43:29;;;;;;;8.23;6.20;;;25.10;67.60;;;;;;2082385;28;20025;-76
2022/07/20 04:44:30;;;;;;;9.00;6.40;;;25.10;67.30;;;;;;2081955;28;20022;-76
2022/07/20 04:45:31;;;;;;;9.05;6.00;;;25.20;67.00;;;;;;2082238;28;20017;-76
2022/07/20 04:46:31;;;;;;;9.05;6.10;;;25.30;67.00;;;;;;2082619;28;20565;-76
2022/07/20 04:47:32;;;;;;;9.70;6.20;;;25.30;66.50;;;;;;2082454;28;20044;-76
2022/07/20 04:48:32;;;;;;;7.63;5.72;;;25.40;66.20;;;;;;2082122;28;20036;-75
2022/07/20 04:49:33;;;;;;;10.35;6.18;;;25.50;65.90;;;;;;2082379;28;20014;-76
2022/07/20 04:50:34;;;;;;;6.88;5.50;;;25.60;65.80;;;;;;2082546;28;20048;-76
2022/07/20 04:51:35;;;;;;;7.07;5.82;;;25.70;65.50;;;;;;2082268;28;20135;-76
2022/07/20 04:52:36;;;;;;;9.27;5.82;;;25.80;65.30;;;;;;2082121;28;20030;-77
2022/07/20 04:53:37;;;;;;;6.30;5.60;;;25.90;64.80;;;;;;2081822;28;20089;-74
2022/07/20 04:54:37;;;;;;;7.93;5.70;;;26.00;64.40;;;;;;2081856;28;20527;-75
2022/07/20 04:55:38;;;;;;;8.13;6.07;;;26.10;64.10;;;;;;2072942;28;20110;-75
2022/07/20 04:56:39;;;;;;;8.77;5.80;;;26.10;63.70;;;;;;2073296;28;20580;-76
2022/07/20 04:57:39;;;;;;;9.70;6.05;;;26.20;63.80;;;;;;2082039;28;20056;-77
2022/07/20 04:58:40;;;;;;;7.78;5.85;;;26.30;63.50;;;;;;2082095;28;20029;-76
2022/07/20 04:59:41;;;;;;;8.55;6.00;;;26.30;63.50;;;;;;2073129;28;20068;-75
2022/07/20 05:00:42;;;;;;;6.80;5.32;;;26.30;63.50;;;;;;2073044;28;20076;-75
2022/07/20 05:01:42;;;;;;;11.00;5.97;;;26.30;63.20;;;;;;2082701;28;20022;-77
2022/07/20 05:02:43;;;;;;;8.05;5.85;;;26.30;63.00;;;;;;2073968;28;20056;-76
2022/07/20 05:03:44;;;;;;;8.18;5.80;;;26.30;63.10;;;;;;2073271;28;20034;-76
2022/07/20 05:04:46;;;;;;;7.32;5.70;;;26.30;63.10;;;;;;2080994;28;20036;-77
2022/07/20 05:05:47;;;;;;;7.57;5.65;;;26.30;63.00;;;;;;2081304;28;20533;-76
2022/07/20 05:06:48;;;;;;;6.88;5.63;;;26.30;63.00;;;;;;2081535;28;20044;-77
2022/07/20 05:07:48;;;;;;;8.85;5.60;;;26.30;62.90;;;;;;2073836;28;20096;-76
2022/07/20 05:08:49;;;;;;;7.80;5.75;;;26.30;62.90;;;;;;2073165;28;20030;-78
2022/07/20 05:09:50;;;;;;;7.80;5.55;;;26.40;62.80;;;;;;2081645;28;20385;-77
2022/07/20 05:10:50;;;;;;;7.88;5.45;;;26.40;62.70;;;;;;2081561;28;20068;-76
2022/07/20 05:11:51;;;;;;;7.65;5.25;;;26.40;62.60;;;;;;2082045;28;20033;-77
2022/07/20 05:12:52;;;;;;;7.82;5.13;;;26.50;62.50;;;;;;2082041;28;20044;-75
2022/07/20 05:13:53;;;;;;;7.95;5.60;;;26.60;62.00;;;;;;2082290;28;20029;-77
2022/07/20 05:14:54;;;;;;;11.48;5.95;;;26.70;61.50;;;;;;2072991;28;20133;-75
2022/07/20 05:15:54;;;;;;;8.70;5.57;;;26.80;61.40;;;;;;2072817;28;20026;-76
2022/07/20 05:16:55;;;;;;;7.07;5.50;;;26.90;61.20;;;;;;2082255;28;20644;-77
2022/07/20 05:17:55;;;;;;;10.90;5.80;;;27.00;61.10;;;;;;2072826;28;20037;-75
2022/07/20 05:19:02;;;;;;;11.25;5.65;;;27.10;60.60;;;;;;2065141;28;20089;-75
2022/07/20 05:20:04;;;;;;;7.03;5.40;;;27.20;60.20;;;;;;2065936;28;20040;-75
2022/07/20 05:21:04;;;;;;;7.05;5.68;;;27.30;59.80;;;;;;2072704;28;20101;-76
2022/07/20 05:22:05;;;;;;;8.43;5.30;;;27.40;59.70;;;;;;2081378;28;20026;-76
2022/07/20 05:23:06;;;;;;;8.43;5.20;;;27.50;59.40;;;;;;2072421;28;20072;-75
2022/07/20 05:24:07;;;;;;;7.15;5.40;;;27.60;59.70;;;;;;2080799;28;20021;-74
2022/07/20 05:25:08;;;;;;;8.35;5.50;;;27.70;58.80;;;;;;2089202;28;20142;-75
2022/07/20 05:26:08;;;;;;;9.05;5.50;;;27.70;58.50;;;;;;2072949;28;20026;-76